Time;durP1;ratioP1;P1;durP2;ratioP2;P2;SDS_P1;SDS_P2;PMS_P1;PMS_P2;Temp;Humidity;BMP_temperature;BMP_pressure;BME280_temperature;BME280_humidity;BME280_pressure;Samples;Min_cycle;Max_cycle;Signal;HPM_P1;HPM_P2
2023/04/25 00:00:35;;;;;;;25.93;12.23;;;9.50;99.90;;;;;;5065443;28;20493;-61
2023/04/25 00:03:03;;;;;;;27.13;13.90;;;9.40;99.90;;;;;;5066373;28;20475;-60
2023/04/25 00:05:31;;;;;;;18.00;10.17;;;9.40;99.90;;;;;;5042900;28;20482;-60
2023/04/25 00:07:58;;;;;;;20.33;10.97;;;9.40;99.90;;;;;;5069936;28;20879;-61
2023/04/25 00:10:25;;;;;;;27.43;13.50;;;9.40;99.90;;;;;;5067703;28;20486;-60
2023/04/25 00:12:51;;;;;;;26.10;9.90;;;9.50;99.90;;;;;;5044767;28;20781;-60
2023/04/25 00:15:18;;;;;;;29.80;13.90;;;9.50;99.90;;;;;;5030433;28;20493;-61
2023/04/25 00:17:45;;;;;;;23.40;12.33;;;9.60;99.90;;;;;;5074857;28;20700;-60
2023/04/25 00:20:13;;;;;;;31.23;14.50;;;9.60;99.90;;;;;;5061569;28;21097;-61
2023/04/25 00:22:41;;;;;;;25.80;13.87;;;9.60;99.90;;;;;;5061542;28;20474;-60
2023/04/25 00:25:08;;;;;;;28.47;13.40;;;9.60;99.90;;;;;;5028666;28;20488;-60
2023/04/25 00:27:35;;;;;;;25.70;11.53;;;9.10;99.90;;;;;;5035217;28;20484;-60
2023/04/25 00:30:02;;;;;;;24.07;12.70;;;9.60;99.90;;;;;;5043667;28;21009;-61
2023/04/25 00:32:29;;;;;;;19.17;10.40;;;9.60;99.90;;;;;;5045768;28;20479;-60
2023/04/25 00:34:57;;;;;;;25.30;10.60;;;9.60;99.90;;;;;;5028731;28;20489;-61
2023/04/25 00:37:24;;;;;;;19.57;11.27;;;9.60;99.90;;;;;;5044660;28;20696;-61
2023/04/25 00:39:53;;;;;;;26.60;13.77;;;9.60;99.90;;;;;;5059280;28;20485;-60
2023/04/25 00:42:20;;;;;;;24.17;13.07;;;9.70;99.90;;;;;;5050583;28;20481;-61
2023/04/25 00:44:48;;;;;;;23.53;13.40;;;9.60;99.90;;;;;;5009380;28;20562;-61
2023/04/25 00:47:16;;;;;;;28.53;14.80;;;9.50;99.90;;;;;;5033693;28;20705;-61
2023/04/25 00:49:42;;;;;;;23.20;11.53;;;9.40;99.90;;;;;;5059794;28;20937;-61
2023/04/25 00:52:09;;;;;;;24.57;13.37;;;9.30;99.90;;;;;;5050744;28;20861;-60
2023/04/25 00:54:36;;;;;;;20.13;11.33;;;9.20;99.90;;;;;;5043937;28;20471;-60
2023/04/25 00:57:04;;;;;;;25.60;11.57;;;9.20;99.90;;;;;;5047796;28;20482;-61
2023/04/25 00:59:31;;;;;;;19.73;11.77;;;9.10;99.90;;;;;;5039582;28;20492;-60
2023/04/25 01:01:59;;;;;;;30.80;15.60;;;9.00;99.90;;;;;;5015716;28;20506;-60
2023/04/25 01:04:27;;;;;;;21.27;11.23;;;9.10;99.90;;;;;;5043589;28;20540;-60
2023/04/25 01:06:55;;;;;;;18.30;10.93;;;9.10;99.90;;;;;;5029167;28;20713;-60
2023/04/25 01:09:22;;;;;;;28.10;15.47;;;9.10;99.90;;;;;;5046780;28;20478;-60
2023/04/25 01:11:49;;;;;;;24.90;11.87;;;9.00;99.90;;;;;;5015345;28;20489;-60
2023/04/25 01:14:18;;;;;;;27.30;14.97;;;9.00;99.90;;;;;;5034152;28;20490;-60
2023/04/25 01:16:47;;;;;;;23.97;14.27;;;9.00;99.90;;;;;;5020814;28;20500;-60
2023/04/25 01:19:18;;;;;;;35.57;17.53;;;9.00;99.90;;;;;;5040220;28;20478;-60
2023/04/25 01:21:46;;;;;;;22.90;11.53;;;9.00;99.90;;;;;;5045609;28;20657;-61
2023/04/25 01:24:13;;;;;;;42.53;14.60;;;9.00;99.90;;;;;;5005237;28;20757;-60
2023/04/25 01:26:44;;;;;;;27.87;14.17;;;9.00;99.90;;;;;;5024343;28;20490;-60
2023/04/25 01:29:11;;;;;;;33.07;14.80;;;9.20;99.90;;;;;;5021984;28;20477;-60
2023/04/25 01:31:38;;;;;;;26.17;11.53;;;9.20;99.90;;;;;;5009898;28;20482;-60
2023/04/25 01:34:05;;;;;;;21.20;11.60;;;9.30;99.90;;;;;;5051722;28;20482;-60
2023/04/25 01:36:32;;;;;;;21.27;11.70;;;9.20;99.90;;;;;;5024720;28;20494;-60
2023/04/25 01:39:00;;;;;;;21.90;10.93;;;9.20;99.90;;;;;;5049949;28;20529;-60
2023/04/25 01:41:27;;;;;;;14.30;9.17;;;9.10;99.90;;;;;;5034066;28;20487;-60
2023/04/25 01:43:54;;;;;;;21.23;12.30;;;9.10;99.90;;;;;;5037881;28;20515;-60
2023/04/25 01:46:21;;;;;;;23.57;12.17;;;9.10;99.90;;;;;;5026883;28;20487;-60
2023/04/25 01:48:48;;;;;;;19.20;11.20;;;9.10;99.90;;;;;;5036087;28;20489;-60
2023/04/25 01:51:16;;;;;;;22.57;13.13;;;9.00;99.90;;;;;;5037234;28;20493;-60
2023/04/25 01:53:43;;;;;;;23.73;10.20;;;9.00;99.90;;;;;;5039552;28;20573;-60
2023/04/25 01:56:11;;;;;;;22.33;10.97;;;9.10;99.90;;;;;;5002729;28;20491;-60
2023/04/25 01:58:38;;;;;;;20.00;10.67;;;9.00;99.90;;;;;;5031148;28;21157;-60
2023/04/25 02:01:05;;;;;;;18.27;10.00;;;8.90;99.90;;;;;;5007103;28;20699;-60
2023/04/25 02:03:32;;;;;;;24.40;12.80;;;6.80;99.90;;;;;;5058106;28;20481;-60
2023/04/25 02:05:59;;;;;;;18.10;9.90;;;8.90;99.90;;;;;;5033368;28;20521;-60
2023/04/25 02:08:26;;;;;;;20.27;9.67;;;9.00;99.90;;;;;;5038191;28;20523;-61
2023/04/25 02:10:53;;;;;;;20.63;12.30;;;8.90;99.90;;;;;;5071538;28;20589;-61
2023/04/25 02:13:21;;;;;;;20.67;11.30;;;6.70;99.90;;;;;;5028309;28;20494;-60
2023/04/25 02:15:48;;;;;;;23.23;11.17;;;8.70;99.90;;;;;;5021875;28;21147;-60
2023/04/25 02:18:16;;;;;;;23.63;12.50;;;8.70;99.90;;;;;;5037573;28;20507;-60
2023/04/25 02:20:43;;;;;;;14.60;9.17;;;8.70;99.90;;;;;;5048286;28;21175;-60
2023/04/25 02:23:09;;;;;;;25.90;13.07;;;8.60;99.90;;;;;;5023919;28;20490;-61
2023/04/25 02:25:36;;;;;;;19.10;10.80;;;8.60;99.90;;;;;;5039815;28;20851;-60
2023/04/25 02:28:03;;;;;;;19.77;10.30;;;8.60;99.90;;;;;;5048219;28;20677;-60
2023/04/25 02:30:31;;;;;;;16.60;9.50;;;8.40;99.90;;;;;;5060350;28;20479;-60
2023/04/25 02:32:58;;;;;;;19.73;10.83;;;8.40;99.90;;;;;;5037278;28;20486;-60
2023/04/25 02:35:24;;;;;;;22.80;13.17;;;8.40;99.90;;;;;;5037079;28;20505;-60
2023/04/25 02:37:51;;;;;;;23.00;11.80;;;8.30;99.90;;;;;;5028172;28;20475;-60
2023/04/25 02:40:18;;;;;;;26.53;14.00;;;8.30;99.90;;;;;;5042986;28;20497;-60
2023/04/25 02:42:45;;;;;;;17.80;11.50;;;8.30;99.90;;;;;;5022897;28;20490;-61
2023/04/25 02:45:12;;;;;;;25.50;12.93;;;8.30;99.90;;;;;;5034135;28;20607;-60
2023/04/25 02:47:40;;;;;;;24.53;12.97;;;8.20;99.90;;;;;;5028324;28;20489;-59
2023/04/25 02:50:08;;;;;;;19.90;11.47;;;8.20;99.90;;;;;;5046070;28;20482;-59
2023/04/25 02:52:35;;;;;;;21.70;11.60;;;8.20;99.90;;;;;;5080843;28;20485;-60
2023/04/25 02:55:02;;;;;;;16.77;10.00;;;8.30;99.90;;;;;;5063665;28;20469;-60
2023/04/25 02:57:29;;;;;;;20.80;11.53;;;;;;;;;;5020347;28;21041;-60
2023/04/25 02:59:55;;;;;;;14.20;8.17;;;8.40;99.90;;;;;;5027008;28;20475;-60
2023/04/25 03:02:22;;;;;;;20.10;11.90;;;8.40;99.90;;;;;;5039172;28;20490;-60
2023/04/25 03:04:50;;;;;;;17.07;11.23;;;7.90;99.90;;;;;;5020792;28;21001;-60
2023/04/25 03:07:17;;;;;;;33.33;12.83;;;8.70;99.90;;;;;;5035331;28;20521;-60
2023/04/25 03:09:43;;;;;;;20.00;11.17;;;8.70;99.90;;;;;;5033994;28;20704;-60
2023/04/25 03:12:10;;;;;;;20.00;11.77;;;8.80;99.90;;;;;;5052828;28;20482;-60
2023/04/25 03:14:37;;;;;;;18.00;9.53;;;8.80;99.90;;;;;;5027068;28;20503;-60
2023/04/25 03:17:03;;;;;;;16.00;10.30;;;8.80;99.90;;;;;;5025892;28;20494;-60
2023/04/25 03:19:30;;;;;;;18.00;10.43;;;8.80;99.90;;;;;;5019033;28;20493;-60
2023/04/25 03:21:58;;;;;;;24.90;11.03;;;8.80;99.90;;;;;;5047901;28;20493;-60
2023/04/25 03:24:26;;;;;;;23.80;13.17;;;8.80;99.90;;;;;;5035872;28;20506;-60
2023/04/25 03:26:52;;;;;;;16.37;10.03;;;8.80;99.90;;;;;;5047451;28;20931;-60
2023/04/25 03:29:19;;;;;;;22.20;10.30;;;8.90;99.90;;;;;;5012848;28;20502;-60
2023/04/25 03:31:46;;;;;;;22.80;11.63;;;8.90;99.90;;;;;;5030529;28;20494;-60
2023/04/25 03:34:14;;;;;;;26.00;14.70;;;9.00;99.90;;;;;;5026759;28;20529;-60
2023/04/25 03:36:41;;;;;;;22.63;10.40;;;9.00;99.90;;;;;;5050959;28;20577;-60
2023/04/25 03:39:09;;;;;;;18.70;11.00;;;9.10;99.90;;;;;;5046471;28;20499;-59
2023/04/25 03:41:35;;;;;;;21.63;11.90;;;9.00;99.90;;;;;;5035550;28;20639;-60
2023/04/25 03:44:02;;;;;;;22.93;10.63;;;8.90;99.90;;;;;;5054031;28;20525;-60
2023/04/25 03:46:29;;;;;;;15.80;10.80;;;8.80;99.90;;;;;;5057647;28;20498;-60
2023/04/25 03:48:55;;;;;;;21.00;11.60;;;8.60;99.90;;;;;;5009225;28;20934;-60
2023/04/25 03:51:22;;;;;;;18.10;10.90;;;8.60;99.90;;;;;;5028074;28;20490;-60
2023/04/25 03:53:49;;;;;;;15.80;8.63;;;8.60;99.90;;;;;;5052503;28;20844;-60
2023/04/25 03:56:17;;;;;;;25.50;12.70;;;8.60;99.90;;;;;;5014932;28;20497;-60
2023/04/25 03:58:44;;;;;;;24.70;10.20;;;8.50;99.90;;;;;;5052633;28;20498;-60
2023/04/25 04:01:10;;;;;;;19.37;11.60;;;8.50;99.90;;;;;;5043378;28;20490;-60
2023/04/25 04:03:38;;;;;;;19.13;11.30;;;8.50;99.90;;;;;;5031772;28;20498;-60
2023/04/25 04:06:06;;;;;;;25.00;11.33;;;8.40;99.90;;;;;;5057716;28;20501;-60
2023/04/25 04:08:33;;;;;;;15.17;9.57;;;8.40;99.90;;;;;;5038688;28;20533;-60
2023/04/25 04:11:00;;;;;;;20.07;11.10;;;8.60;99.90;;;;;;5009771;28;20932;-60
2023/04/25 04:13:29;;;;;;;22.87;10.77;;;8.70;99.90;;;;;;5059548;28;20481;-60
2023/04/25 04:15:57;;;;;;;17.07;9.73;;;8.80;99.90;;;;;;5032908;28;21034;-59
2023/04/25 04:18:23;;;;;;;26.37;13.70;;;8.80;99.90;;;;;;5022798;28;20536;-60
2023/04/25 04:20:50;;;;;;;17.10;10.70;;;8.60;99.90;;;;;;5036975;28;20481;-60
2023/04/25 04:23:17;;;;;;;27.53;13.70;;;8.70;99.90;;;;;;5045048;28;20509;-60
2023/04/25 04:25:44;;;;;;;20.03;11.07;;;8.70;99.90;;;;;;5024318;28;21072;-60
2023/04/25 04:28:10;;;;;;;24.03;11.47;;;8.80;99.90;;;;;;5027053;28;20509;-60
2023/04/25 04:30:39;;;;;;;20.40;11.20;;;8.90;99.90;;;;;;5047562;28;20498;-60
2023/04/25 04:33:05;;;;;;;20.43;10.93;;;9.00;99.90;;;;;;5014649;28;20526;-59
2023/04/25 04:35:32;;;;;;;25.73;13.60;;;9.20;99.90;;;;;;5031526;28;20490;-60
2023/04/25 04:37:59;;;;;;;21.07;11.87;;;9.20;99.90;;;;;;5032727;28;20494;-60
2023/04/25 04:40:26;;;;;;;24.30;13.87;;;9.30;99.90;;;;;;5044097;28;20559;-59
2023/04/25 04:42:56;;;;;;;19.80;10.57;;;9.20;99.90;;;;;;5049737;28;20978;-60
2023/04/25 04:45:23;;;;;;;24.80;12.93;;;9.20;99.90;;;;;;5024360;28;20563;-60
2023/04/25 04:47:51;;;;;;;18.73;11.73;;;9.30;99.90;;;;;;5016397;28;20507;-60
2023/04/25 04:50:18;;;;;;;32.80;14.67;;;9.40;99.90;;;;;;5022974;28;20482;-60
2023/04/25 04:52:45;;;;;;;22.60;11.30;;;9.40;99.90;;;;;;5050846;28;21051;-60
2023/04/25 04:55:12;;;;;;;20.40;12.30;;;9.40;99.90;;;;;;5039316;28;20494;-60
2023/04/25 04:57:39;;;;;;;23.43;12.17;;;9.20;99.90;;;;;;5069030;28;20482;-59
2023/04/25 05:00:10;;;;;;;17.17;11.30;;;9.10;99.90;;;;;;5054007;28;20478;-60
2023/04/25 05:02:38;;;;;;;33.33;10.80;;;9.00;99.90;;;;;;5028582;28;20618;-60
2023/04/25 05:05:06;;;;;;;19.10;11.73;;;8.90;99.90;;;;;;5030187;28;20896;-59
2023/04/25 05:07:33;;;;;;;18.80;12.20;;;8.80;99.90;;;;;;5048742;28;20488;-59
2023/04/25 05:10:00;;;;;;;18.07;11.40;;;8.90;99.90;;;;;;5023128;28;20506;-59
2023/04/25 05:12:26;;;;;;;23.30;13.97;;;8.80;99.90;;;;;;5024224;28;20521;-60
2023/04/25 05:14:53;;;;;;;19.93;11.47;;;8.80;99.90;;;;;;5053644;28;20663;-59
2023/04/25 05:17:19;;;;;;;24.20;12.60;;;8.70;99.90;;;;;;5058752;28;20530;-60
2023/04/25 05:19:46;;;;;;;22.23;12.73;;;8.70;99.90;;;;;;5016171;28;20502;-59
2023/04/25 05:22:14;;;;;;;23.87;13.17;;;8.80;99.90;;;;;;5058319;28;20479;-59
2023/04/25 05:24:42;;;;;;;16.77;11.17;;;8.90;99.90;;;;;;5025232;28;20571;-60
2023/04/25 05:27:08;;;;;;;21.20;12.47;;;9.00;99.90;;;;;;5013466;28;20768;-59
2023/04/25 05:29:36;;;;;;;24.53;14.40;;;9.20;99.90;;;;;;5020837;28;20489;-59
2023/04/25 05:32:03;;;;;;;16.57;10.30;;;9.20;99.90;;;;;;5027982;28;20545;-59
2023/04/25 05:34:29;;;;;;;19.77;12.77;;;9.20;99.90;;;;;;5051033;28;20592;-60
2023/04/25 05:36:56;;;;;;;19.20;13.00;;;9.10;99.90;;;;;;5016909;28;20489;-59
2023/04/25 05:39:24;;;;;;;19.00;12.20;;;9.20;99.90;;;;;;5028174;28;20497;-59
2023/04/25 05:41:51;;;;;;;17.40;10.93;;;9.20;99.90;;;;;;5042359;28;20486;-59
2023/04/25 05:44:17;;;;;;;22.30;13.40;;;9.20;99.90;;;;;;5065250;28;21069;-59
2023/04/25 05:46:44;;;;;;;16.63;10.60;;;9.20;99.90;;;;;;5014062;28;20923;-59
2023/04/25 05:49:11;;;;;;;22.33;13.60;;;9.20;99.90;;;;;;5041985;28;20482;-59
2023/04/25 05:51:37;;;;;;;21.30;13.70;;;9.20;99.90;;;;;;5027622;28;20485;-59
2023/04/25 05:54:04;;;;;;;26.50;12.50;;;9.20;99.90;;;;;;5030465;28;21034;-59
2023/04/25 05:56:32;;;;;;;18.60;12.10;;;9.20;99.90;;;;;;5027403;28;20477;-59
2023/04/25 05:58:59;;;;;;;18.70;12.07;;;9.20;99.90;;;;;;5043397;28;20490;-59
2023/04/25 06:01:26;;;;;;;21.13;13.33;;;9.20;99.90;;;;;;4995212;28;20564;-59
2023/04/25 06:03:53;;;;;;;21.67;12.97;;;9.10;99.90;;;;;;5044938;28;20489;-59
2023/04/25 06:06:20;;;;;;;22.40;13.30;;;9.20;99.90;;;;;;5054408;28;20573;-59
2023/04/25 06:08:46;;;;;;;16.87;11.27;;;9.20;99.90;;;;;;5063341;28;20488;-59
2023/04/25 06:11:13;;;;;;;24.97;14.73;;;9.20;99.90;;;;;;5034480;28;20565;-59
2023/04/25 06:13:41;;;;;;;24.10;13.50;;;9.20;99.90;;;;;;5041881;28;20566;-59
2023/04/25 06:16:08;;;;;;;16.93;11.60;;;9.30;99.90;;;;;;5030076;28;20491;-59
2023/04/25 06:18:35;;;;;;;20.70;12.20;;;9.40;99.90;;;;;;5056190;28;20594;-60
2023/04/25 06:21:02;;;;;;;22.60;14.23;;;9.40;99.90;;;;;;5040665;28;20860;-59
2023/04/25 06:23:29;;;;;;;24.30;13.50;;;9.50;99.90;;;;;;5035499;28;20485;-59
2023/04/25 06:25:56;;;;;;;16.97;11.43;;;9.50;99.90;;;;;;5011328;28;20479;-59
2023/04/25 06:28:24;;;;;;;26.90;13.67;;;9.50;99.90;;;;;;5045134;28;20491;-59
2023/04/25 06:30:52;;;;;;;20.37;13.13;;;9.60;99.90;;;;;;5045683;28;20496;-59
2023/04/25 06:33:18;;;;;;;21.50;13.03;;;9.60;99.90;;;;;;5031570;28;20489;-60
2023/04/25 06:35:45;;;;;;;19.27;12.90;;;9.70;99.90;;;;;;5047416;28;20486;-59
2023/04/25 06:38:12;;;;;;;25.20;13.47;;;9.70;99.90;;;;;;5042747;28;20500;-59
2023/04/25 06:40:39;;;;;;;24.80;14.70;;;9.80;99.90;;;;;;5060067;28;20486;-59
2023/04/25 06:43:05;;;;;;;21.80;14.00;;;9.90;99.90;;;;;;5023308;28;20486;-59
2023/04/25 06:45:32;;;;;;;19.00;11.60;;;9.90;99.90;;;;;;5035527;28;20504;-60
2023/04/25 06:48:00;;;;;;;19.57;12.90;;;9.90;99.90;;;;;;5050920;28;20492;-60
2023/04/25 06:50:27;;;;;;;21.93;13.97;;;9.90;99.90;;;;;;5021320;28;20509;-59
2023/04/25 06:52:53;;;;;;;20.00;13.20;;;9.90;99.90;;;;;;5006710;28;20493;-59
2023/04/25 06:55:20;;;;;;;23.50;13.93;;;9.90;99.90;;;;;;5053994;28;20881;-59
2023/04/25 06:57:47;;;;;;;19.90;12.17;;;9.90;99.90;;;;;;5037127;28;20549;-59
2023/04/25 07:00:15;;;;;;;24.93;14.50;;;11.40;99.90;;;;;;5053955;28;20923;-59
2023/04/25 07:02:43;;;;;;;25.10;14.50;;;9.90;99.90;;;;;;5025912;28;20958;-60
2023/04/25 07:05:11;;;;;;;29.23;15.47;;;9.90;99.90;;;;;;5040768;28;20562;-59
2023/04/25 07:07:38;;;;;;;21.63;12.63;;;10.00;99.90;;;;;;5027826;28;20576;-60
2023/04/25 07:10:05;;;;;;;27.37;16.40;;;10.00;99.90;;;;;;5039980;28;20494;-59
2023/04/25 07:12:32;;;;;;;25.40;16.60;;;10.00;99.90;;;;;;5044392;28;20496;-59
2023/04/25 07:14:59;;;;;;;25.20;13.73;;;10.10;99.90;;;;;;5027635;28;20483;-59
2023/04/25 07:17:25;;;;;;;29.67;14.87;;;10.30;99.90;;;;;;5028880;28;20487;-59
2023/04/25 07:19:52;;;;;;;25.43;16.00;;;10.20;99.90;;;;;;5003864;28;20486;-59
2023/04/25 07:22:20;;;;;;;51.20;19.53;;;10.10;99.90;;;;;;5053320;28;20478;-59
2023/04/25 07:24:48;;;;;;;34.37;15.93;;;10.10;99.90;;;;;;4990061;28;20502;-59
2023/04/25 07:27:15;;;;;;;25.83;16.20;;;10.10;99.90;;;;;;5040230;28;20596;-60
2023/04/25 07:29:42;;;;;;;30.13;17.47;;;10.10;99.90;;;;;;5005820;28;20872;-59
2023/04/25 07:32:10;;;;;;;29.73;18.10;;;10.00;99.90;;;;;;5030957;28;20486;-59
2023/04/25 07:34:38;;;;;;;25.93;16.60;;;10.10;99.90;;;;;;5035995;28;21074;-59
2023/04/25 07:37:05;;;;;;;31.67;15.67;;;10.00;99.90;;;;;;5025166;28;20989;-59
2023/04/25 07:39:33;;;;;;;26.40;15.33;;;10.00;99.90;;;;;;5040847;28;20489;-60
2023/04/25 07:42:00;;;;;;;31.73;17.00;;;10.00;99.90;;;;;;5058296;28;20478;-60
2023/04/25 07:44:27;;;;;;;29.10;16.07;;;10.00;99.90;;;;;;5039256;28;20573;-59
2023/04/25 07:46:53;;;;;;;31.57;16.87;;;10.00;99.90;;;;;;5023954;28;20489;-59
2023/04/25 07:49:20;;;;;;;27.67;15.97;;;10.00;99.90;;;;;;5042151;28;20485;-60
2023/04/25 07:51:47;;;;;;;24.97;14.67;;;9.90;99.90;;;;;;5053150;28;20473;-60
2023/04/25 07:54:16;;;;;;;26.33;16.33;;;9.90;99.90;;;;;;5052123;28;20483;-60
2023/04/25 07:56:44;;;;;;;25.50;13.27;;;9.90;99.90;;;;;;5013997;28;20476;-59
2023/04/25 07:59:10;;;;;;;26.67;14.40;;;10.00;99.90;;;;;;5048382;28;20544;-59
2023/04/25 08:01:37;;;;;;;25.90;16.33;;;10.00;99.90;;;;;;5054951;28;20858;-60
2023/04/25 08:04:04;;;;;;;22.97;14.37;;;10.10;99.90;;;;;;5055954;28;21058;-60
2023/04/25 08:06:40;;;;;;;25.07;13.80;;;10.20;99.90;;;;;;5011848;28;20502;-60
2023/04/25 08:09:08;;;;;;;23.53;15.67;;;10.30;99.90;;;;;;5030340;28;20482;-59
2023/04/25 08:11:35;;;;;;;21.00;13.20;;;10.30;99.90;;;;;;5044402;28;20903;-59
2023/04/25 08:14:03;;;;;;;20.17;12.80;;;10.40;99.90;;;;;;5050585;28;20482;-60
2023/04/25 08:16:29;;;;;;;23.80;15.40;;;10.40;99.90;;;;;;5034822;28;20504;-60
2023/04/25 08:18:56;;;;;;;22.33;13.50;;;10.40;99.90;;;;;;5079933;28;20481;-60
2023/04/25 08:21:23;;;;;;;25.37;13.93;;;10.50;99.90;;;;;;5009818;28;20491;-60
2023/04/25 08:23:49;;;;;;;20.97;13.53;;;10.50;99.90;;;;;;5031509;28;20494;-60
2023/04/25 08:26:16;;;;;;;24.00;14.57;;;10.70;99.90;;;;;;5016470;28;20514;-60
2023/04/25 08:28:43;;;;;;;21.57;14.67;;;10.70;99.90;;;;;;5051228;28;20480;-60
2023/04/25 08:31:11;;;;;;;17.93;12.07;;;10.90;99.90;;;;;;5036187;28;20490;-60
2023/04/25 08:33:37;;;;;;;18.33;12.30;;;10.90;99.90;;;;;;5017684;28;20956;-60
2023/04/25 08:36:05;;;;;;;19.10;12.00;;;10.90;99.90;;;;;;5047325;28;20518;-60
2023/04/25 08:38:32;;;;;;;23.60;11.77;;;11.00;99.90;;;;;;5020227;28;20511;-60
2023/04/25 08:41:01;;;;;;;16.67;11.23;;;11.20;99.90;;;;;;5071188;28;20504;-60
2023/04/25 08:44:24;;;;;;;19.40;11.30;;;11.20;99.90;;;;;;5041439;28;20553;-60
2023/04/25 08:47:03;;;;;;;15.70;10.77;;;11.30;99.90;;;;;;5033072;28;20485;-60
2023/04/25 08:49:31;;;;;;;21.00;11.97;;;11.40;99.90;;;;;;5048685;28;20485;-60
2023/04/25 08:52:01;;;;;;;14.33;9.87;;;11.40;99.90;;;;;;5067934;28;20608;-60
2023/04/25 08:54:30;;;;;;;16.70;12.00;;;11.50;99.90;;;;;;5051064;28;20492;-60
2023/04/25 08:56:57;;;;;;;18.03;10.33;;;11.60;99.90;;;;;;5034691;28;20838;-60
2023/04/25 08:59:24;;;;;;;40.27;24.33;;;11.70;99.90;;;;;;5028059;28;20608;-60
2023/04/25 09:01:52;;;;;;;18.07;11.03;;;11.70;99.90;;;;;;5053686;28;20655;-60
2023/04/25 09:04:20;;;;;;;18.93;10.67;;;11.80;99.90;;;;;;5048895;28;20577;-60
2023/04/25 09:06:47;;;;;;;15.20;10.20;;;11.80;99.90;;;;;;5058668;28;20491;-60
2023/04/25 09:09:14;;;;;;;17.77;11.50;;;11.70;99.90;;;;;;5018179;28;20486;-60
2023/04/25 09:11:41;;;;;;;24.43;11.30;;;11.80;99.90;;;;;;5061507;28;20476;-61
2023/04/25 09:14:15;;;;;;;11.30;8.60;;;11.90;99.90;;;;;;5043001;28;21021;-60
2023/04/25 09:17:03;;;;;;;13.47;10.50;;;12.00;99.90;;;;;;5008939;28;20611;-60
2023/04/25 09:19:32;;;;;;;13.93;9.63;;;12.10;99.90;;;;;;5033265;28;20491;-60
2023/04/25 09:22:00;;;;;;;15.83;9.80;;;12.10;99.90;;;;;;5030809;28;20929;-61
2023/04/25 09:24:36;;;;;;;14.80;9.90;;;12.30;99.90;;;;;;5045478;28;21067;-60
2023/04/25 09:27:05;;;;;;;16.27;8.60;;;12.20;99.90;;;;;;4991220;28;20489;-61
2023/04/25 09:29:33;;;;;;;22.47;11.47;;;12.50;99.90;;;;;;5016685;28;21111;-61
2023/04/25 09:32:21;;;;;;;13.50;9.90;;;12.70;99.90;;;;;;5017297;28;20482;-61
2023/04/25 09:34:51;;;;;;;15.10;11.70;;;13.10;99.90;;;;;;5049009;28;20837;-61
2023/04/25 09:37:20;;;;;;;19.80;14.10;;;13.30;99.90;;;;;;5033374;28;20514;-61
2023/04/25 09:39:47;;;;;;;14.10;10.80;;;13.70;99.90;;;;;;5049816;28;20500;-61
2023/04/25 09:42:15;;;;;;;21.13;13.60;;;13.90;99.90;;;;;;5060791;28;20520;-61
2023/04/25 09:44:44;;;;;;;15.07;10.00;;;13.90;99.90;;;;;;5052144;28;20917;-61
2023/04/25 09:47:12;;;;;;;16.17;11.03;;;13.90;98.70;;;;;;5020063;28;20504;-60
2023/04/25 09:49:41;;;;;;;12.70;10.23;;;13.80;97.80;;;;;;5021249;28;20591;-61
2023/04/25 09:52:13;;;;;;;12.80;9.40;;;13.60;98.20;;;;;;5071522;28;20580;-61
2023/04/25 09:54:40;;;;;;;13.70;6.90;;;13.30;97.70;;;;;;5028415;28;20482;-61
2023/04/25 09:57:12;;;;;;;12.73;8.00;;;13.00;97.90;;;;;;5021303;28;20501;-61
2023/04/25 09:59:40;;;;;;;8.90;7.13;;;;;;;;;;4991876;28;20491;-61
2023/04/25 10:02:09;;;;;;;9.60;6.93;;;12.10;97.00;;;;;;5015501;28;20535;-61
2023/04/25 10:04:38;;;;;;;16.53;7.43;;;11.80;97.80;;;;;;5012275;28;20503;-60
2023/04/25 10:07:07;;;;;;;8.00;6.53;;;11.60;97.90;;;;;;4993637;28;20483;-60
2023/04/25 10:09:39;;;;;;;11.20;7.30;;;11.30;98.40;;;;;;4984352;28;20491;-60
2023/04/25 10:12:06;;;;;;;12.80;6.60;;;11.10;98.60;;;;;;5036908;28;20572;-60
2023/04/25 10:14:33;;;;;;;8.10;5.37;;;10.90;99.00;;;;;;5014862;28;20523;-60
2023/04/25 10:17:01;;;;;;;8.10;5.73;;;12.60;99.90;;;;;;5004806;28;21154;-59
2023/04/25 10:19:29;;;;;;;14.50;8.33;;;10.70;99.90;;;;;;5021951;28;20499;-59
2023/04/25 10:22:04;;;;;;;8.40;5.83;;;10.80;99.90;;;;;;5009872;28;20494;-60
2023/04/25 10:24:31;;;;;;;8.20;5.83;;;10.90;99.90;;;;;;5004142;28;20490;-60
2023/04/25 10:26:59;;;;;;;13.03;7.80;;;12.00;99.90;;;;;;5001375;28;20483;-60
2023/04/25 10:29:27;;;;;;;13.70;8.00;;;11.10;99.90;;;;;;5000700;28;20545;-60
2023/04/25 10:31:53;;;;;;;10.90;7.47;;;11.40;99.90;;;;;;5039658;28;20483;-60
2023/04/25 10:34:24;;;;;;;20.13;8.30;;;11.50;99.90;;;;;;4993330;28;20498;-60
2023/04/25 10:36:52;;;;;;;9.20;6.50;;;11.60;99.90;;;;;;5004963;28;20511;-60
2023/04/25 10:39:24;;;;;;;15.13;8.43;;;11.90;99.90;;;;;;5032470;28;20514;-59
2023/04/25 10:41:57;;;;;;;10.63;7.77;;;11.90;99.90;;;;;;4976178;28;20900;-59
2023/04/25 10:44:28;;;;;;;11.03;7.40;;;12.10;99.90;;;;;;5032322;28;20476;-60
2023/04/25 10:46:56;;;;;;;11.13;7.07;;;12.20;99.90;;;;;;5027802;28;20547;-60
2023/04/25 10:49:31;;;;;;;14.40;9.20;;;12.60;99.90;;;;;;5022554;28;21007;-60
2023/04/25 10:52:19;;;;;;;10.50;7.10;;;12.90;99.90;;;;;;5031588;28;20478;-60
2023/04/25 10:54:49;;;;;;;9.23;6.80;;;12.90;99.80;;;;;;5011127;28;20491;-60
2023/04/25 10:57:30;;;;;;;12.83;8.77;;;13.10;99.90;;;;;;5028598;28;20554;-60
2023/04/25 11:00:04;;;;;;;9.80;6.60;;;13.00;98.80;;;;;;4988024;28;20561;-60
2023/04/25 11:02:31;;;;;;;9.50;6.53;;;12.80;97.70;;;;;;5021632;28;20478;-60
2023/04/25 11:04:58;;;;;;;13.27;6.60;;;12.60;97.70;;;;;;5036415;28;20508;-60
2023/04/25 11:07:34;;;;;;;12.20;8.00;;;12.50;97.60;;;;;;5062876;28;21032;-60
2023/04/25 11:10:03;;;;;;;7.33;5.63;;;12.60;99.40;;;;;;5026142;28;20837;-60
2023/04/25 11:12:31;;;;;;;10.00;7.30;;;12.70;98.80;;;;;;5042472;28;21032;-60
2023/04/25 11:15:04;;;;;;;11.50;7.90;;;12.70;98.00;;;;;;5044030;28;20551;-60
2023/04/25 11:17:31;;;;;;;25.50;7.80;;;12.70;97.00;;;;;;5022360;28;20992;-60
2023/04/25 11:19:57;;;;;;;7.47;5.67;;;12.50;96.10;;;;;;5042867;28;20490;-60
2023/04/25 11:22:24;;;;;;;13.20;8.27;;;12.40;96.10;;;;;;5053267;28;20693;-60
2023/04/25 11:24:51;;;;;;;17.63;7.30;;;12.30;96.70;;;;;;5024896;28;20497;-60
2023/04/25 11:27:18;;;;;;;11.23;7.83;;;12.20;96.60;;;;;;5050480;28;20767;-60
2023/04/25 11:29:45;;;;;;;9.97;7.17;;;12.40;98.20;;;;;;5056983;28;20487;-60
2023/04/25 11:32:13;;;;;;;16.50;10.97;;;13.00;99.90;;;;;;4994139;28;20513;-60
2023/04/25 11:34:39;;;;;;;12.47;7.20;;;13.40;98.00;;;;;;5047327;28;20487;-60
2023/04/25 11:37:06;;;;;;;11.37;7.60;;;13.90;99.80;;;;;;5054097;28;20480;-60
2023/04/25 11:39:33;;;;;;;8.60;7.70;;;14.30;98.40;;;;;;5068309;28;20504;-61
2023/04/25 11:42:01;;;;;;;11.37;8.13;;;14.50;96.70;;;;;;5033082;28;20501;-60
2023/04/25 11:44:29;;;;;;;15.23;10.20;;;14.90;98.50;;;;;;5056451;28;20643;-61
2023/04/25 11:46:56;;;;;;;15.13;8.83;;;15.10;96.10;;;;;;5052051;28;20599;-61
2023/04/25 11:49:25;;;;;;;14.03;11.20;;;15.20;96.10;;;;;;5046755;28;21151;-61
2023/04/25 11:51:51;;;;;;;16.17;11.73;;;15.80;96.20;;;;;;5027291;28;20497;-61
2023/04/25 11:54:18;;;;;;;19.37;11.27;;;15.30;96.30;;;;;;5045344;28;20507;-61
2023/04/25 11:56:45;;;;;;;10.77;8.13;;;15.40;96.00;;;;;;5026300;28;20501;-61
2023/04/25 11:59:13;;;;;;;15.33;9.83;;;15.40;95.20;;;;;;5038653;28;20487;-61
2023/04/25 12:01:41;;;;;;;14.80;7.13;;;14.90;94.90;;;;;;5014528;28;20495;-62
2023/04/25 12:04:12;;;;;;;13.07;9.40;;;14.90;95.70;;;;;;5031488;28;20880;-62
2023/04/25 12:06:41;;;;;;;13.50;8.87;;;14.90;95.70;;;;;;5067418;28;20590;-61
2023/04/25 12:09:10;;;;;;;14.70;10.27;;;14.80;95.20;;;;;;5029910;28;21309;-61
2023/04/25 12:11:42;;;;;;;14.20;9.80;;;15.10;95.90;;;;;;5049536;28;20713;-62
2023/04/25 12:14:09;;;;;;;12.80;9.40;;;15.50;97.10;;;;;;5024466;28;20926;-62
2023/04/25 12:16:43;;;;;;;13.37;9.33;;;15.60;96.90;;;;;;5038379;28;20477;-62
2023/04/25 12:19:10;;;;;;;12.47;8.90;;;15.70;96.10;;;;;;5003828;28;20533;-62
2023/04/25 12:21:36;;;;;;;18.83;9.80;;;15.40;93.70;;;;;;5012680;28;20503;-62
2023/04/25 12:24:16;;;;;;;13.10;8.97;;;15.00;93.30;;;;;;5025375;28;20502;-62
2023/04/25 12:26:54;;;;;;;18.83;9.00;;;14.60;94.40;;;;;;5035269;28;20473;-62
2023/04/25 12:29:22;;;;;;;19.80;13.00;;;14.30;93.60;;;;;;5062376;28;20603;-62
2023/04/25 12:31:49;;;;;;;16.10;10.80;;;14.10;94.20;;;;;;4977930;28;21321;-61
2023/04/25 12:34:16;;;;;;;22.70;11.63;;;13.80;94.60;;;;;;5020139;28;20479;-61
2023/04/25 12:36:43;;;;;;;14.37;8.93;;;13.80;95.20;;;;;;5025876;28;20553;-61
2023/04/25 12:39:16;;;;;;;13.23;8.50;;;13.70;95.80;;;;;;5019396;28;20890;-61